Bahías de Huatulco International Airport
MMBT : now visible

Airfield :











YOU CAN JOIN US ON...

 
LOGIN :

Register | Disclaimer

   EN    FR    IT 

 









Legend :    VFR   Marginal VFR   IFR   Intensive IFR   Very Intensive IFR
Visi :
Ceiling :
>= 8 km
>= 3000ft
5 to 8 km
1000 to 3000 ft
1500m to 5 km
500 to 1000 ft
800 to 1500m
200 to 500 ft
< 800m
< 200 ft
Symbols :   Thunderstorms  Fog  Heavy snow  Heavy precipitations  Wind > 20 kt







- Airport Elevation : 464 ft
- IATA code : HUX


MMBT - Bahías de Huatulco International

CURRENT METAR :
  • 202348Z 20008KT 7SM SCT060 30/24 A2979 RMK 8/400 HZY

EXPIRED METARs :
  • 202245Z 20011KT 7SM SCT060 32/23 A2979 RMK 8/400 HZY

TAF AMD TAF MMBT
Valid from the 20 at 22:00 until the 21 at 18:00 UTC


202209Z 2022/2118 23010KT P6SM BKN045
FM210200 00000KT P6SM SKC
FM211700 23010KT P6SM SCT030
MMFR FIR / North America



MET'MAP, your aeronautical weather chart ! - Copyright ORBIFLY December 2007 - Disclaimer

ORBIFLY MET'MAP TEAM :

Programming & Development : Alexandra Zaïnal
Concept & Development : Baudouin d'Aumeries
Co-Development & Prog : Marc-Olivier Méhu
Technical & hardware support : Manuel Goepfert

Contact : metmap@orbifly.com




SOURCES & CREDITS :

   NOAA       Earth
Advisory